sensor_id;sensor_type;location;lat;lon;timestamp;pressure;altitude;pressure_sealevel;temperature;humidity
9439;BME280;5176;42.622;25.386;2023-04-23T00:00:51;97260.06;;;9.53;98.09
9439;BME280;5176;42.622;25.386;2023-04-23T00:03:20;97256.84;;;9.48;98.36
9439;BME280;5176;42.622;25.386;2023-04-23T00:05:51;97252.75;;;9.44;97.60
9439;BME280;5176;42.622;25.386;2023-04-23T00:08:21;97261.25;;;9.48;98.17
9439;BME280;5176;42.622;25.386;2023-04-23T00:10:51;97257.69;;;9.49;99.21
9439;BME280;5176;42.622;25.386;2023-04-23T00:13:22;97256.78;;;9.50;99.24
9439;BME280;5176;42.622;25.386;2023-04-23T00:15:52;97255.91;;;9.49;98.25
9439;BME280;5176;42.622;25.386;2023-04-23T00:18:21;97257.88;;;9.46;99.53
9439;BME280;5176;42.622;25.386;2023-04-23T00:20:50;97263.13;;;9.46;99.64
9439;BME280;5176;42.622;25.386;2023-04-23T00:23:19;97265.91;;;9.43;99.86
9439;BME280;5176;42.622;25.386;2023-04-23T00:25:47;97255.28;;;9.46;99.89
9439;BME280;5176;42.622;25.386;2023-04-23T00:28:16;97256.13;;;9.46;96.46
9439;BME280;5176;42.622;25.386;2023-04-23T00:30:47;97261.53;;;9.43;96.24
9439;BME280;5176;42.622;25.386;2023-04-23T00:33:16;97258.25;;;9.40;96.44
9439;BME280;5176;42.622;25.386;2023-04-23T00:35:45;97255.28;;;9.46;97.64
9439;BME280;5176;42.622;25.386;2023-04-23T00:38:14;97261.81;;;9.39;96.98
9439;BME280;5176;42.622;25.386;2023-04-23T00:40:42;97264.09;;;9.29;95.76
9439;BME280;5176;42.622;25.386;2023-04-23T00:43:11;97256.78;;;9.20;96.66
9439;BME280;5176;42.622;25.386;2023-04-23T00:45:41;97257.25;;;9.12;98.77
9439;BME280;5176;42.622;25.386;2023-04-23T00:48:12;97260.13;;;9.08;100.00
9439;BME280;5176;42.622;25.386;2023-04-23T00:50:41;97260.94;;;9.08;100.00
9439;BME280;5176;42.622;25.386;2023-04-23T00:53:10;97262.13;;;9.02;100.00
9439;BME280;5176;42.622;25.386;2023-04-23T00:55:39;97256.00;;;9.04;99.52
9439;BME280;5176;42.622;25.386;2023-04-23T00:58:08;97264.75;;;9.02;99.56
9439;BME280;5176;42.622;25.386;2023-04-23T01:00:45;97273.22;;;8.92;100.00
9439;BME280;5176;42.622;25.386;2023-04-23T01:03:16;97269.28;;;8.85;100.00
9439;BME280;5176;42.622;25.386;2023-04-23T01:05:48;97270.84;;;8.87;99.40
9439;BME280;5176;42.622;25.386;2023-04-23T01:08:20;97267.75;;;8.81;100.00
9439;BME280;5176;42.622;25.386;2023-04-23T01:10:51;97266.91;;;8.80;100.00
9439;BME280;5176;42.622;25.386;2023-04-23T01:13:20;97268.63;;;8.65;100.00
9439;BME280;5176;42.622;25.386;2023-04-23T01:15:52;97264.91;;;8.69;100.00
9439;BME280;5176;42.622;25.386;2023-04-23T01:18:23;97264.31;;;8.64;100.00
9439;BME280;5176;42.622;25.386;2023-04-23T01:20:52;97266.16;;;8.62;100.00
9439;BME280;5176;42.622;25.386;2023-04-23T01:23:24;97271.03;;;8.68;100.00
9439;BME280;5176;42.622;25.386;2023-04-23T01:25:54;97268.09;;;8.74;100.00
9439;BME280;5176;42.622;25.386;2023-04-23T01:28:23;97268.19;;;8.73;99.12
9439;BME280;5176;42.622;25.386;2023-04-23T01:30:52;97265.66;;;8.71;98.27
9439;BME280;5176;42.622;25.386;2023-04-23T01:33:24;97258.91;;;8.67;98.78
9439;BME280;5176;42.622;25.386;2023-04-23T01:35:54;97258.91;;;8.67;99.68
9439;BME280;5176;42.622;25.386;2023-04-23T01:38:27;97260.69;;;8.67;100.00
9439;BME280;5176;42.622;25.386;2023-04-23T01:40:58;97257.97;;;8.68;100.00
9439;BME280;5176;42.622;25.386;2023-04-23T01:43:27;97254.53;;;8.68;100.00
9439;BME280;5176;42.622;25.386;2023-04-23T01:45:56;97266.66;;;8.69;100.00
9439;BME280;5176;42.622;25.386;2023-04-23T01:48:26;97263.88;;;8.72;100.00
9439;BME280;5176;42.622;25.386;2023-04-23T01:50:55;97265.75;;;8.70;99.22
9439;BME280;5176;42.622;25.386;2023-04-23T01:53:26;97269.56;;;8.64;98.31
9439;BME280;5176;42.622;25.386;2023-04-23T01:55:55;97268.25;;;8.56;98.24
9439;BME280;5176;42.622;25.386;2023-04-23T01:58:25;97274.50;;;8.53;98.54
9439;BME280;5176;42.622;25.386;2023-04-23T02:00:53;97270.22;;;8.52;99.20
9439;BME280;5176;42.622;25.386;2023-04-23T02:03:22;97270.13;;;8.54;99.72
9439;BME280;5176;42.622;25.386;2023-04-23T02:05:53;97269.53;;;8.49;99.47
9439;BME280;5176;42.622;25.386;2023-04-23T02:08:22;97272.41;;;8.44;100.00
9439;BME280;5176;42.622;25.386;2023-04-23T02:10:53;97281.19;;;8.43;100.00
9439;BME280;5176;42.622;25.386;2023-04-23T02:13:22;97280.50;;;8.39;99.00
9439;BME280;5176;42.622;25.386;2023-04-23T02:15:51;97279.75;;;8.37;99.06
9439;BME280;5176;42.622;25.386;2023-04-23T02:18:20;97276.59;;;8.31;100.00
9439;BME280;5176;42.622;25.386;2023-04-23T02:20:48;97274.91;;;8.30;100.00
9439;BME280;5176;42.622;25.386;2023-04-23T02:23:17;97284.56;;;8.28;100.00
9439;BME280;5176;42.622;25.386;2023-04-23T02:25:46;97287.19;;;8.28;100.00
9439;BME280;5176;42.622;25.386;2023-04-23T02:28:16;97281.28;;;8.24;100.00
9439;BME280;5176;42.622;25.386;2023-04-23T02:30:45;97287.44;;;8.23;100.00
9439;BME280;5176;42.622;25.386;2023-04-23T02:33:14;97289.13;;;8.24;100.00
9439;BME280;5176;42.622;25.386;2023-04-23T02:35:45;97284.91;;;8.22;100.00
9439;BME280;5176;42.622;25.386;2023-04-23T02:38:14;97286.84;;;8.18;100.00
9439;BME280;5176;42.622;25.386;2023-04-23T02:40:42;97288.75;;;8.14;100.00
9439;BME280;5176;42.622;25.386;2023-04-23T02:43:11;97283.81;;;8.10;100.00
9439;BME280;5176;42.622;25.386;2023-04-23T02:45:44;97286.31;;;8.11;100.00
9439;BME280;5176;42.622;25.386;2023-04-23T02:48:13;97280.50;;;8.06;100.00
9439;BME280;5176;42.622;25.386;2023-04-23T02:50:42;97277.88;;;8.06;100.00
9439;BME280;5176;42.622;25.386;2023-04-23T02:53:10;97282.28;;;8.06;100.00
9439;BME280;5176;42.622;25.386;2023-04-23T02:55:39;97281.75;;;7.99;100.00
9439;BME280;5176;42.622;25.386;2023-04-23T02:58:08;97275.91;;;7.94;100.00
9439;BME280;5176;42.622;25.386;2023-04-23T03:00:37;97281.47;;;7.88;100.00
9439;BME280;5176;42.622;25.386;2023-04-23T03:03:07;97285.69;;;7.90;100.00
9439;BME280;5176;42.622;25.386;2023-04-23T03:05:36;97281.31;;;7.91;100.00
9439;BME280;5176;42.622;25.386;2023-04-23T03:08:05;97287.88;;;7.82;100.00
9439;BME280;5176;42.622;25.386;2023-04-23T03:10:34;97290.72;;;7.78;100.00
9439;BME280;5176;42.622;25.386;2023-04-23T03:13:03;97292.88;;;7.70;100.00
9439;BME280;5176;42.622;25.386;2023-04-23T03:15:32;97289.56;;;7.66;100.00
9439;BME280;5176;42.622;25.386;2023-04-23T03:18:00;97296.31;;;7.70;100.00
9439;BME280;5176;42.622;25.386;2023-04-23T03:20:31;97298.94;;;7.70;100.00
9439;BME280;5176;42.622;25.386;2023-04-23T03:23:00;97290.94;;;7.73;100.00
9439;BME280;5176;42.622;25.386;2023-04-23T03:25:29;97298.94;;;7.70;100.00
9439;BME280;5176;42.622;25.386;2023-04-23T03:27:58;97305.31;;;7.64;100.00
9439;BME280;5176;42.622;25.386;2023-04-23T03:30:28;97299.56;;;7.58;100.00
9439;BME280;5176;42.622;25.386;2023-04-23T03:32:57;97309.78;;;7.62;100.00
9439;BME280;5176;42.622;25.386;2023-04-23T03:35:25;97310.13;;;7.55;100.00
9439;BME280;5176;42.622;25.386;2023-04-23T03:37:56;97308.84;;;7.46;100.00
9439;BME280;5176;42.622;25.386;2023-04-23T03:40:24;97309.97;;;7.41;100.00
9439;BME280;5176;42.622;25.386;2023-04-23T03:42:53;97299.63;;;7.39;100.00
9439;BME280;5176;42.622;25.386;2023-04-23T03:45:24;97310.59;;;7.46;100.00
9439;BME280;5176;42.622;25.386;2023-04-23T03:47:53;97316.53;;;7.49;100.00
9439;BME280;5176;42.622;25.386;2023-04-23T03:50:22;97318.13;;;7.52;100.00
9439;BME280;5176;42.622;25.386;2023-04-23T03:52:51;97322.50;;;7.51;100.00
9439;BME280;5176;42.622;25.386;2023-04-23T03:55:22;97315.50;;;7.52;100.00
9439;BME280;5176;42.622;25.386;2023-04-23T03:57:50;97317.19;;;7.53;100.00
9439;BME280;5176;42.622;25.386;2023-04-23T04:00:19;97322.19;;;7.57;100.00
9439;BME280;5176;42.622;25.386;2023-04-23T04:02:48;97319.72;;;7.72;100.00
9439;BME280;5176;42.622;25.386;2023-04-23T04:05:17;97331.34;;;7.82;100.00
9439;BME280;5176;42.622;25.386;2023-04-23T04:07:45;97318.00;;;7.88;100.00
9439;BME280;5176;42.622;25.386;2023-04-23T04:10:14;97324.06;;;7.88;100.00
9439;BME280;5176;42.622;25.386;2023-04-23T04:12:44;97323.22;;;7.88;100.00
9439;BME280;5176;42.622;25.386;2023-04-23T04:15:14;97334.50;;;7.88;100.00
9439;BME280;5176;42.622;25.386;2023-04-23T04:17:42;97334.34;;;7.91;100.00
9439;BME280;5176;42.622;25.386;2023-04-23T04:20:11;97336.22;;;7.89;100.00
9439;BME280;5176;42.622;25.386;2023-04-23T04:22:40;97334.88;;;7.98;100.00
9439;BME280;5176;42.622;25.386;2023-04-23T04:25:09;97336.16;;;8.07;100.00
9439;BME280;5176;42.622;25.386;2023-04-23T04:27:38;97328.78;;;8.15;100.00
9439;BME280;5176;42.622;25.386;2023-04-23T04:30:09;97333.44;;;8.26;100.00
9439;BME280;5176;42.622;25.386;2023-04-23T04:32:38;97336.66;;;8.31;100.00
9439;BME280;5176;42.622;25.386;2023-04-23T04:35:08;97338.81;;;8.40;100.00
9439;BME280;5176;42.622;25.386;2023-04-23T04:37:38;97338.28;;;8.49;100.00
9439;BME280;5176;42.622;25.386;2023-04-23T04:40:08;97347.44;;;8.58;100.00
9439;BME280;5176;42.622;25.386;2023-04-23T04:42:37;97348.03;;;8.63;100.00
9439;BME280;5176;42.622;25.386;2023-04-23T04:45:08;97350.13;;;8.72;100.00
9439;BME280;5176;42.622;25.386;2023-04-23T04:47:37;97348.69;;;8.82;100.00
9439;BME280;5176;42.622;25.386;2023-04-23T04:50:07;97350.03;;;8.89;100.00
9439;BME280;5176;42.622;25.386;2023-04-23T04:52:36;97352.50;;;8.92;100.00
9439;BME280;5176;42.622;25.386;2023-04-23T04:55:05;97349.34;;;9.01;100.00
9439;BME280;5176;42.622;25.386;2023-04-23T04:57:34;97353.41;;;9.07;100.00
9439;BME280;5176;42.622;25.386;2023-04-23T05:00:22;97355.53;;;9.16;100.00
9439;BME280;5176;42.622;25.386;2023-04-23T05:02:52;97350.19;;;9.18;100.00
9439;BME280;5176;42.622;25.386;2023-04-23T05:05:22;97353.13;;;9.27;100.00
9439;BME280;5176;42.622;25.386;2023-04-23T05:07:51;97354.97;;;9.41;100.00
9439;BME280;5176;42.622;25.386;2023-04-23T05:10:21;97354.22;;;9.39;100.00
9439;BME280;5176;42.622;25.386;2023-04-23T05:12:49;97357.06;;;9.35;100.00
9439;BME280;5176;42.622;25.386;2023-04-23T05:15:20;97364.59;;;9.41;100.00
9439;BME280;5176;42.622;25.386;2023-04-23T05:17:49;97364.91;;;9.50;100.00
9439;BME280;5176;42.622;25.386;2023-04-23T05:20:19;97367.00;;;9.60;100.00
9439;BME280;5176;42.622;25.386;2023-04-23T05:22:49;97369.34;;;9.64;100.00
9439;BME280;5176;42.622;25.386;2023-04-23T05:25:18;97360.00;;;9.74;100.00
9439;BME280;5176;42.622;25.386;2023-04-23T05:27:46;97363.31;;;9.78;100.00
9439;BME280;5176;42.622;25.386;2023-04-23T05:30:16;97359.75;;;9.79;100.00
9439;BME280;5176;42.622;25.386;2023-04-23T05:32:45;97364.78;;;9.82;100.00
9439;BME280;5176;42.622;25.386;2023-04-23T05:35:14;97361.75;;;9.90;100.00
9439;BME280;5176;42.622;25.386;2023-04-23T05:37:43;97360.47;;;9.97;100.00
9439;BME280;5176;42.622;25.386;2023-04-23T05:40:12;97358.84;;;9.94;100.00
9439;BME280;5176;42.622;25.386;2023-04-23T05:42:41;97370.06;;;9.96;100.00
9439;BME280;5176;42.622;25.386;2023-04-23T05:45:10;97356.44;;;10.05;100.00
9439;BME280;5176;42.622;25.386;2023-04-23T05:47:39;97360.47;;;10.11;100.00
9439;BME280;5176;42.622;25.386;2023-04-23T05:50:10;97362.44;;;10.22;100.00
9439;BME280;5176;42.622;25.386;2023-04-23T05:52:38;97369.66;;;10.18;100.00
9439;BME280;5176;42.622;25.386;2023-04-23T05:55:08;97359.81;;;10.07;100.00
9439;BME280;5176;42.622;25.386;2023-04-23T05:57:37;97370.13;;;10.10;100.00
9439;BME280;5176;42.622;25.386;2023-04-23T06:00:07;97361.41;;;10.10;100.00
9439;BME280;5176;42.622;25.386;2023-04-23T06:02:37;97370.59;;;10.17;100.00
9439;BME280;5176;42.622;25.386;2023-04-23T06:05:06;97376.13;;;10.27;100.00
9439;BME280;5176;42.622;25.386;2023-04-23T06:07:37;97368.47;;;10.38;100.00
9439;BME280;5176;42.622;25.386;2023-04-23T06:10:07;97371.25;;;10.49;100.00
9439;BME280;5176;42.622;25.386;2023-04-23T06:12:37;97376.22;;;10.68;100.00
9439;BME280;5176;42.622;25.386;2023-04-23T06:15:08;97378.44;;;10.88;100.00
9439;BME280;5176;42.622;25.386;2023-04-23T06:17:37;97374.56;;;11.08;100.00
9439;BME280;5176;42.622;25.386;2023-04-23T06:20:07;97376.00;;;11.27;100.00
9439;BME280;5176;42.622;25.386;2023-04-23T06:22:39;97375.22;;;11.39;98.75
9439;BME280;5176;42.622;25.386;2023-04-23T06:25:08;97379.91;;;11.61;99.88
9439;BME280;5176;42.622;25.386;2023-04-23T06:27:37;97373.41;;;11.93;99.86
9439;BME280;5176;42.622;25.386;2023-04-23T06:30:06;97372.56;;;12.06;95.51
9439;BME280;5176;42.622;25.386;2023-04-23T06:32:35;97372.19;;;12.24;96.87
9439;BME280;5176;42.622;25.386;2023-04-23T06:35:05;97369.84;;;12.58;93.96
9439;BME280;5176;42.622;25.386;2023-04-23T06:37:34;97369.16;;;12.93;89.74
9439;BME280;5176;42.622;25.386;2023-04-23T06:40:06;97372.88;;;13.14;89.62
9439;BME280;5176;42.622;25.386;2023-04-23T06:42:34;97378.25;;;13.25;87.39
9439;BME280;5176;42.622;25.386;2023-04-23T06:45:04;97373.06;;;13.24;83.63
9439;BME280;5176;42.622;25.386;2023-04-23T06:47:33;97375.38;;;13.28;83.10
9439;BME280;5176;42.622;25.386;2023-04-23T06:50:01;97384.91;;;13.42;83.68
9439;BME280;5176;42.622;25.386;2023-04-23T06:52:31;97377.44;;;13.36;80.25
9439;BME280;5176;42.622;25.386;2023-04-23T06:55:00;97375.16;;;13.31;81.44
9439;BME280;5176;42.622;25.386;2023-04-23T06:57:30;97387.66;;;13.41;80.31
9439;BME280;5176;42.622;25.386;2023-04-23T06:59:59;97380.59;;;13.41;79.86
9439;BME280;5176;42.622;25.386;2023-04-23T07:02:28;97374.56;;;13.52;79.07
9439;BME280;5176;42.622;25.386;2023-04-23T07:04:56;97377.44;;;13.60;78.39
9439;BME280;5176;42.622;25.386;2023-04-23T07:07:25;97389.66;;;13.61;79.97
9439;BME280;5176;42.622;25.386;2023-04-23T07:09:54;97378.88;;;13.64;79.91
9439;BME280;5176;42.622;25.386;2023-04-23T07:12:23;97382.88;;;13.70;80.45
9439;BME280;5176;42.622;25.386;2023-04-23T07:14:53;97386.28;;;13.83;80.78
9439;BME280;5176;42.622;25.386;2023-04-23T07:17:22;97381.75;;;13.96;82.02
9439;BME280;5176;42.622;25.386;2023-04-23T07:19:51;97382.13;;;14.03;76.69
9439;BME280;5176;42.622;25.386;2023-04-23T07:22:19;97379.47;;;14.38;77.69
9439;BME280;5176;42.622;25.386;2023-04-23T07:24:48;97385.16;;;14.67;73.51
9439;BME280;5176;42.622;25.386;2023-04-23T07:27:16;97376.91;;;14.71;74.48
9439;BME280;5176;42.622;25.386;2023-04-23T07:29:45;97379.03;;;14.78;74.39
9439;BME280;5176;42.622;25.386;2023-04-23T07:32:15;97373.13;;;15.08;71.17
9439;BME280;5176;42.622;25.386;2023-04-23T07:34:45;97374.66;;;15.33;68.06
9439;BME280;5176;42.622;25.386;2023-04-23T07:37:13;97377.22;;;15.55;65.41
9439;BME280;5176;42.622;25.386;2023-04-23T07:39:42;97367.88;;;15.83;61.94
9439;BME280;5176;42.622;25.386;2023-04-23T07:42:11;97378.94;;;16.09;56.53
9439;BME280;5176;42.622;25.386;2023-04-23T07:44:40;97377.44;;;16.16;53.36
9439;BME280;5176;42.622;25.386;2023-04-23T07:47:09;97376.41;;;16.28;51.09
9439;BME280;5176;42.622;25.386;2023-04-23T07:49:39;97380.53;;;16.42;52.42
9439;BME280;5176;42.622;25.386;2023-04-23T07:52:08;97369.78;;;16.65;50.08
9439;BME280;5176;42.622;25.386;2023-04-23T07:54:36;97378.16;;;16.91;49.20
9439;BME280;5176;42.622;25.386;2023-04-23T07:57:05;97371.00;;;17.12;49.65
9439;BME280;5176;42.622;25.386;2023-04-23T07:59:33;97368.34;;;17.31;47.44
9439;BME280;5176;42.622;25.386;2023-04-23T08:02:02;97368.81;;;17.56;47.61
9439;BME280;5176;42.622;25.386;2023-04-23T08:04:30;97376.13;;;17.73;46.67
9439;BME280;5176;42.622;25.386;2023-04-23T08:07:01;97369.84;;;17.93;47.29
9439;BME280;5176;42.622;25.386;2023-04-23T08:09:29;97370.25;;;17.98;44.84
9439;BME280;5176;42.622;25.386;2023-04-23T08:11:58;97362.72;;;18.13;45.10
9439;BME280;5176;42.622;25.386;2023-04-23T08:14:27;97360.28;;;18.30;45.21
9439;BME280;5176;42.622;25.386;2023-04-23T08:16:56;97357.34;;;18.42;45.45
9439;BME280;5176;42.622;25.386;2023-04-23T08:19:24;97356.44;;;18.61;43.93
9439;BME280;5176;42.622;25.386;2023-04-23T08:21:57;97352.75;;;18.82;44.38
9439;BME280;5176;42.622;25.386;2023-04-23T08:24:27;97351.44;;;18.95;44.65
9439;BME280;5176;42.622;25.386;2023-04-23T08:26:55;97359.34;;;19.05;43.22
9439;BME280;5176;42.622;25.386;2023-04-23T08:29:24;97357.66;;;19.14;43.94
9439;BME280;5176;42.622;25.386;2023-04-23T08:31:53;97348.03;;;19.30;43.84
9439;BME280;5176;42.622;25.386;2023-04-23T08:34:21;97353.38;;;19.48;42.87
9439;BME280;5176;42.622;25.386;2023-04-23T08:36:50;97345.34;;;19.58;43.62
9439;BME280;5176;42.622;25.386;2023-04-23T08:39:18;97342.06;;;19.46;42.74
9439;BME280;5176;42.622;25.386;2023-04-23T08:41:54;97340.72;;;19.32;43.23
9439;BME280;5176;42.622;25.386;2023-04-23T08:44:23;97340.91;;;19.49;43.66
9439;BME280;5176;42.622;25.386;2023-04-23T08:46:53;97326.34;;;19.71;44.19
9439;BME280;5176;42.622;25.386;2023-04-23T08:49:21;97333.94;;;19.66;42.10
9439;BME280;5176;42.622;25.386;2023-04-23T08:52:04;97325.97;;;19.83;43.01
9439;BME280;5176;42.622;25.386;2023-04-23T08:54:36;97332.50;;;19.89;42.27
9439;BME280;5176;42.622;25.386;2023-04-23T08:57:09;97330.13;;;19.86;41.32
9439;BME280;5176;42.622;25.386;2023-04-23T08:59:38;97332.78;;;20.04;43.17
9439;BME280;5176;42.622;25.386;2023-04-23T09:02:08;97326.84;;;20.10;42.53
9439;BME280;5176;42.622;25.386;2023-04-23T09:04:36;97329.72;;;20.17;41.24
9439;BME280;5176;42.622;25.386;2023-04-23T09:07:09;97318.34;;;20.06;41.78
9439;BME280;5176;42.622;25.386;2023-04-23T09:09:39;97322.19;;;20.12;40.33
9439;BME280;5176;42.622;25.386;2023-04-23T09:12:08;97316.91;;;19.94;41.64
9439;BME280;5176;42.622;25.386;2023-04-23T09:14:37;97322.75;;;19.98;42.38
9439;BME280;5176;42.622;25.386;2023-04-23T09:17:05;97317.59;;;19.96;41.63
9439;BME280;5176;42.622;25.386;2023-04-23T09:19:35;97293.25;;;20.09;41.83
9439;BME280;5176;42.622;25.386;2023-04-23T09:22:06;97314.31;;;20.02;40.42
9439;BME280;5176;42.622;25.386;2023-04-23T09:24:36;97308.38;;;20.08;40.54
9439;BME280;5176;42.622;25.386;2023-04-23T09:27:05;97313.78;;;20.25;41.51
9439;BME280;5176;42.622;25.386;2023-04-23T09:29:34;97305.25;;;20.13;40.76
9439;BME280;5176;42.622;25.386;2023-04-23T09:32:06;97305.56;;;19.66;40.94
9439;BME280;5176;42.622;25.386;2023-04-23T09:34:35;97299.38;;;19.66;42.19
9439;BME280;5176;42.622;25.386;2023-04-23T09:37:06;97294.44;;;19.53;41.60
9439;BME280;5176;42.622;25.386;2023-04-23T09:39:38;97301.56;;;19.35;41.77
9439;BME280;5176;42.622;25.386;2023-04-23T09:42:07;97297.88;;;19.00;42.11
9439;BME280;5176;42.622;25.386;2023-04-23T09:44:37;97288.28;;;18.89;43.03
9439;BME280;5176;42.622;25.386;2023-04-23T09:47:06;97284.78;;;18.89;40.98
9439;BME280;5176;42.622;25.386;2023-04-23T09:49:46;97281.66;;;19.39;42.08
9439;BME280;5176;42.622;25.386;2023-04-23T09:52:17;97282.13;;;19.70;41.30
9439;BME280;5176;42.622;25.386;2023-04-23T09:54:46;97281.28;;;19.87;41.00
9439;BME280;5176;42.622;25.386;2023-04-23T09:57:15;97270.19;;;19.56;40.07
9439;BME280;5176;42.622;25.386;2023-04-23T09:59:44;97279.31;;;19.53;41.39
9439;BME280;5176;42.622;25.386;2023-04-23T10:02:13;97274.44;;;19.49;38.98
9439;BME280;5176;42.622;25.386;2023-04-23T10:04:41;97265.25;;;19.79;38.79
9439;BME280;5176;42.622;25.386;2023-04-23T10:07:10;97275.59;;;19.64;39.55
9439;BME280;5176;42.622;25.386;2023-04-23T10:09:42;97262.31;;;19.64;39.52
9439;BME280;5176;42.622;25.386;2023-04-23T10:12:12;97253.28;;;20.01;40.12
9439;BME280;5176;42.622;25.386;2023-04-23T10:14:41;97264.06;;;20.25;38.84
9439;BME280;5176;42.622;25.386;2023-04-23T10:17:11;97258.84;;;20.41;39.10
9439;BME280;5176;42.622;25.386;2023-04-23T10:19:40;97254.19;;;20.44;37.87
9439;BME280;5176;42.622;25.386;2023-04-23T10:22:13;97253.22;;;20.45;37.39
9439;BME280;5176;42.622;25.386;2023-04-23T10:24:45;97244.81;;;20.39;37.97
9439;BME280;5176;42.622;25.386;2023-04-23T10:27:17;97242.97;;;20.06;38.73
9439;BME280;5176;42.622;25.386;2023-04-23T10:29:47;97243.16;;;20.38;38.52
9439;BME280;5176;42.622;25.386;2023-04-23T10:32:17;97240.84;;;20.35;36.90
9439;BME280;5176;42.622;25.386;2023-04-23T10:34:47;97243.03;;;20.40;36.51
9439;BME280;5176;42.622;25.386;2023-04-23T10:37:16;97234.28;;;20.48;36.67
9439;BME280;5176;42.622;25.386;2023-04-23T10:39:52;97234.47;;;20.54;37.53
9439;BME280;5176;42.622;25.386;2023-04-23T10:42:22;97239.63;;;20.30;37.22
9439;BME280;5176;42.622;25.386;2023-04-23T10:44:55;97235.13;;;20.56;37.03
9439;BME280;5176;42.622;25.386;2023-04-23T10:47:24;97228.88;;;20.74;37.88
9439;BME280;5176;42.622;25.386;2023-04-23T10:49:52;97219.50;;;20.53;36.49
9439;BME280;5176;42.622;25.386;2023-04-23T10:52:21;97222.84;;;20.72;36.37
9439;BME280;5176;42.622;25.386;2023-04-23T10:54:56;97224.69;;;20.71;35.89
9439;BME280;5176;42.622;25.386;2023-04-23T10:57:25;97227.41;;;20.87;35.70
9439;BME280;5176;42.622;25.386;2023-04-23T10:59:54;97201.94;;;20.93;36.51
9439;BME280;5176;42.622;25.386;2023-04-23T11:02:24;97223.59;;;20.90;36.25
9439;BME280;5176;42.622;25.386;2023-04-23T11:04:54;97217.78;;;21.03;36.54
9439;BME280;5176;42.622;25.386;2023-04-23T11:07:29;97212.78;;;21.00;35.39
9439;BME280;5176;42.622;25.386;2023-04-23T11:10:10;97216.69;;;20.71;35.74
9439;BME280;5176;42.622;25.386;2023-04-23T11:12:40;97196.22;;;20.72;35.77
9439;BME280;5176;42.622;25.386;2023-04-23T11:15:10;97202.25;;;20.74;37.58
9439;BME280;5176;42.622;25.386;2023-04-23T11:18:01;97208.59;;;20.81;37.52
9439;BME280;5176;42.622;25.386;2023-04-23T11:20:30;97205.41;;;20.77;36.42
9439;BME280;5176;42.622;25.386;2023-04-23T11:22:58;97210.00;;;20.59;37.19
9439;BME280;5176;42.622;25.386;2023-04-23T11:25:28;97198.81;;;20.47;36.08
9439;BME280;5176;42.622;25.386;2023-04-23T11:27:57;97202.75;;;20.43;36.51
9439;BME280;5176;42.622;25.386;2023-04-23T11:30:27;97206.69;;;20.31;36.96
9439;BME280;5176;42.622;25.386;2023-04-23T11:32:56;97209.94;;;20.17;39.46
9439;BME280;5176;42.622;25.386;2023-04-23T11:35:25;97204.06;;;19.79;39.80
9439;BME280;5176;42.622;25.386;2023-04-23T11:37:55;97198.78;;;19.43;39.97
9439;BME280;5176;42.622;25.386;2023-04-23T11:40:24;97213.72;;;19.00;41.01
9439;BME280;5176;42.622;25.386;2023-04-23T11:42:58;97213.91;;;18.89;40.65
9439;BME280;5176;42.622;25.386;2023-04-23T11:45:30;97209.38;;;18.99;41.25
9439;BME280;5176;42.622;25.386;2023-04-23T11:47:59;97211.13;;;19.26;41.66
9439;BME280;5176;42.622;25.386;2023-04-23T11:50:30;97214.97;;;19.50;40.49
9439;BME280;5176;42.622;25.386;2023-04-23T11:53:03;97213.16;;;19.68;38.54
9439;BME280;5176;42.622;25.386;2023-04-23T11:55:32;97201.91;;;19.74;39.20
9439;BME280;5176;42.622;25.386;2023-04-23T11:58:03;97201.47;;;19.87;38.61
9439;BME280;5176;42.622;25.386;2023-04-23T12:00:32;97204.59;;;20.08;40.25
9439;BME280;5176;42.622;25.386;2023-04-23T12:03:01;97196.97;;;20.13;38.41
9439;BME280;5176;42.622;25.386;2023-04-23T12:05:31;97203.34;;;20.21;39.53
9439;BME280;5176;42.622;25.386;2023-04-23T12:08:06;97196.78;;;20.07;38.83
9439;BME280;5176;42.622;25.386;2023-04-23T12:10:41;97201.81;;;20.18;38.17
9439;BME280;5176;42.622;25.386;2023-04-23T12:13:15;97194.97;;;20.16;38.15
9439;BME280;5176;42.622;25.386;2023-04-23T12:15:46;97186.72;;;20.27;38.70
9439;BME280;5176;42.622;25.386;2023-04-23T12:18:16;97185.94;;;20.34;37.26
9439;BME280;5176;42.622;25.386;2023-04-23T12:20:45;97181.44;;;20.01;36.64
9439;BME280;5176;42.622;25.386;2023-04-23T12:23:13;97179.50;;;19.85;37.05
9439;BME280;5176;42.622;25.386;2023-04-23T12:25:42;97179.63;;;20.01;37.43
9439;BME280;5176;42.622;25.386;2023-04-23T12:28:10;97177.53;;;20.13;36.41
9439;BME280;5176;42.622;25.386;2023-04-23T12:30:44;97173.53;;;20.17;35.65
9439;BME280;5176;42.622;25.386;2023-04-23T12:33:13;97168.94;;;20.35;35.80
9439;BME280;5176;42.622;25.386;2023-04-23T12:35:42;97154.31;;;20.39;37.09
9439;BME280;5176;42.622;25.386;2023-04-23T12:38:21;97165.34;;;20.45;36.25
9439;BME280;5176;42.622;25.386;2023-04-23T12:40:51;97158.19;;;20.11;35.22
9439;BME280;5176;42.622;25.386;2023-04-23T12:43:20;97165.28;;;20.28;36.18
9439;BME280;5176;42.622;25.386;2023-04-23T12:45:50;97152.56;;;20.48;35.33
9439;BME280;5176;42.622;25.386;2023-04-23T12:48:19;97147.28;;;20.64;35.53
9439;BME280;5176;42.622;25.386;2023-04-23T12:50:48;97155.41;;;20.55;33.82
9439;BME280;5176;42.622;25.386;2023-04-23T12:53:17;97145.47;;;20.73;34.33
9439;BME280;5176;42.622;25.386;2023-04-23T12:55:46;97136.34;;;21.00;34.69
9439;BME280;5176;42.622;25.386;2023-04-23T12:58:16;97146.84;;;21.18;33.86
9439;BME280;5176;42.622;25.386;2023-04-23T13:00:44;97145.84;;;21.11;33.27
9439;BME280;5176;42.622;25.386;2023-04-23T13:03:15;97143.50;;;21.00;34.29
9439;BME280;5176;42.622;25.386;2023-04-23T13:05:45;97148.50;;;20.86;33.76
9439;BME280;5176;42.622;25.386;2023-04-23T13:08:14;97140.66;;;20.85;35.04
9439;BME280;5176;42.622;25.386;2023-04-23T13:10:43;97134.31;;;20.78;34.56
9439;BME280;5176;42.622;25.386;2023-04-23T13:13:12;97140.63;;;20.77;32.79
9439;BME280;5176;42.622;25.386;2023-04-23T13:15:41;97135.78;;;20.72;33.29
9439;BME280;5176;42.622;25.386;2023-04-23T13:18:10;97138.78;;;20.61;32.93
9439;BME280;5176;42.622;25.386;2023-04-23T13:20:40;97142.25;;;20.53;35.07
9439;BME280;5176;42.622;25.386;2023-04-23T13:23:09;97139.97;;;20.75;35.56
9439;BME280;5176;42.622;25.386;2023-04-23T13:25:39;97141.63;;;20.76;36.97